Time;durP1;ratioP1;P1;durP2;ratioP2;P2;SDS_P1;SDS_P2;PMS_P1;PMS_P2;Temp;Humidity;BMP_temperature;BMP_pressure;BME280_temperature;BME280_humidity;BME280_pressure;Samples;Min_cycle;Max_cycle;Signal;HPM_P1;HPM_P2
2022/04/24 00:02:13;;;;;;;2.45;1.90;;;;;;;2.16;72.39;101649.84;4935199;29;20055;-69
2022/04/24 00:04:40;;;;;;;5.30;2.30;;;;;;;2.06;72.13;101637.34;4918383;29;20040;-70
2022/04/24 00:07:09;;;;;;;5.60;2.43;;;;;;;2.09;72.62;101660.81;4935368;29;20050;-70
2022/04/24 00:09:36;;;;;;;4.07;2.27;;;;;;;2.13;72.48;101665.78;4902579;29;20292;-72
2022/04/24 00:12:02;;;;;;;3.93;2.00;;;;;;;2.00;72.49;101628.00;4938487;29;20282;-72
2022/04/24 00:14:27;;;;;;;2.10;1.90;;;;;;;2.02;72.60;101631.38;4938858;29;20275;-69
2022/04/24 00:16:53;;;;;;;4.10;2.87;;;;;;;1.96;72.89;101613.34;4936549;29;20283;-70
2022/04/24 00:19:19;;;;;;;2.70;2.10;;;;;;;1.92;72.83;101632.84;4935369;29;20036;-69
2022/04/24 00:21:45;;;;;;;4.17;2.10;;;;;;;2.08;73.22;101632.84;4918136;29;20059;-70
2022/04/24 00:24:11;;;;;;;3.60;2.40;;;;;;;1.95;73.06;101624.78;4918393;29;20042;-69
2022/04/24 00:26:38;;;;;;;4.27;2.30;;;;;;;1.80;73.37;101591.50;4935435;29;20279;-69
2022/04/24 00:29:03;;;;;;;2.93;2.20;;;;;;;1.90;73.77;101611.06;4917865;29;20275;-68
2022/04/24 00:31:29;;;;;;;5.37;2.57;;;;;;;1.87;73.53;101603.34;4934882;29;20275;-69
2022/04/24 00:33:54;;;;;;;3.20;2.40;;;;;;;1.97;73.46;101622.91;4934902;29;20040;-68
2022/04/24 00:36:20;;;;;;;2.77;2.43;;;;;;;1.89;73.71;101605.91;4917855;29;20047;-70
2022/04/24 00:38:45;;;;;;;2.37;1.87;;;;;;;1.95;73.72;101624.78;4935052;29;20421;-71
2022/04/24 00:41:11;;;;;;;5.73;2.47;;;;;;;1.98;74.05;101629.84;4935669;29;20042;-70
2022/04/24 00:43:36;;;;;;;2.83;1.90;;;;;;;1.97;74.17;101625.53;4919624;29;20050;-70
2022/04/24 00:46:13;;;;;;;4.23;2.63;;;;;;;1.90;74.32;101623.34;4936821;29;20032;-68
2022/04/24 00:48:40;;;;;;;3.30;2.50;;;;;;;1.85;74.24;101618.34;4935496;29;20061;-70
2022/04/24 00:51:08;;;;;;;3.37;2.63;;;;;;;1.90;74.52;101621.56;4936137;29;20276;-70
2022/04/24 00:53:35;;;;;;;4.27;2.80;;;;;;;1.82;74.78;101618.53;4935144;29;20427;-70
2022/04/24 00:56:01;;;;;;;3.67;2.20;;;;;;;1.86;74.74;101610.38;4934773;29;20439;-69
2022/04/24 00:58:29;;;;;;;3.40;2.40;;;;;;;1.59;74.87;101571.69;4934515;29;20298;-71
2022/04/24 01:00:56;;;;;;;2.50;2.27;;;;;;;1.80;75.66;101620.41;4917686;29;20295;-69
2022/04/24 01:03:22;;;;;;;3.60;2.80;;;;;;;1.78;75.12;101614.38;4934701;29;20271;-69
2022/04/24 01:05:48;;;;;;;2.90;2.37;;;;;;;1.84;75.51;101609.63;4934447;29;20627;-70
2022/04/24 01:08:13;;;;;;;3.37;2.30;;;;;;;1.70;75.24;101579.81;4936774;29;20280;-70
2022/04/24 01:10:40;;;;;;;2.80;2.20;;;;;;;1.92;75.50;101603.94;4936645;29;20126;-69
2022/04/24 01:13:06;;;;;;;5.33;2.47;;;;;;;1.75;75.33;101583.91;4935783;29;20267;-70
2022/04/24 01:15:33;;;;;;;3.57;2.30;;;;;;;1.92;75.73;101589.97;4934901;29;20355;-69
2022/04/24 01:18:00;;;;;;;2.97;2.57;;;;;;;1.94;75.56;101596.81;4917448;29;20695;-69
2022/04/24 01:20:26;;;;;;;2.33;2.03;;;;;;;1.88;75.79;101601.56;4934642;29;20287;-70
2022/04/24 01:22:51;;;;;;;2.60;2.37;;;;;;;2.02;75.31;101599.84;4934630;29;20260;-69
2022/04/24 01:25:17;;;;;;;4.53;3.10;;;;;;;2.03;75.34;101613.84;4917896;29;20054;-69
2022/04/24 01:27:43;;;;;;;3.00;2.43;;;;;;;2.09;75.05;101611.72;4934826;29;20046;-72
2022/04/24 01:30:09;;;;;;;3.47;2.70;;;;;;;1.99;74.95;101579.00;4934757;29;20040;-70
2022/04/24 01:32:35;;;;;;;3.40;2.40;;;;;;;2.08;75.24;101586.38;4934588;29;20091;-70
2022/04/24 01:35:01;;;;;;;2.53;2.20;;;;;;;2.13;74.97;101586.13;4934660;29;20122;-70
2022/04/24 01:37:28;;;;;;;4.73;2.63;;;;;;;2.23;75.17;101602.19;4934485;29;20035;-69
2022/04/24 01:39:54;;;;;;;3.50;2.20;;;;;;;2.20;74.91;101597.13;4934330;29;20288;-70
2022/04/24 01:42:20;;;;;;;3.10;2.47;;;;;;;2.18;75.03;101584.91;4920229;29;20089;-69
2022/04/24 01:44:45;;;;;;;3.70;2.03;;;;;;;2.04;74.82;101563.84;4920922;29;20279;-70
2022/04/24 01:47:11;;;;;;;4.23;2.17;;;;;;;2.25;75.02;101600.31;4938339;29;20051;-70
2022/04/24 01:49:37;;;;;;;3.47;2.47;;;;;;;2.01;75.42;101558.75;4920565;29;20031;-70
2022/04/24 01:52:05;;;;;;;8.60;3.50;;;;;;;2.20;74.99;101586.59;4937553;29;20036;-69
2022/04/24 01:54:30;;;;;;;2.75;2.50;;;;;;;2.19;75.13;101583.13;4937774;29;20126;-69
2022/04/24 01:56:56;;;;;;;5.73;2.50;;;;;;;2.12;75.69;101580.00;4937861;29;20131;-69
2022/04/24 01:59:24;;;;;;;3.50;2.70;;;;;;;2.08;75.68;101586.38;4937269;29;20055;-67
2022/04/24 02:01:49;;;;;;;3.27;2.97;;;;;;;2.03;75.90;101567.41;4937439;29;20044;-69
2022/04/24 02:04:18;;;;;;;2.90;2.60;;;;;;;1.93;76.01;101563.59;4937156;29;20318;-68
2022/04/24 02:06:44;;;;;;;;;;;;;;;2.09;75.84;101579.34;4937828;29;20043;-68
2022/04/24 02:09:11;;;;;;;5.00;2.90;;;;;;;2.04;76.48;101578.78;4937593;29;20061;-69
2022/04/24 02:12:03;;;;;;;3.60;2.90;;;;;;;2.03;76.41;101574.44;4937588;29;20111;-68
2022/04/24 02:14:28;;;;;;;4.90;3.03;;;;;;;1.90;76.53;101561.16;4923802;29;20291;-67
2022/04/24 02:16:54;;;;;;;3.53;2.40;;;;;;;1.92;76.60;101568.94;4937830;29;20050;-67
2022/04/24 02:19:19;;;;;;;5.07;3.00;;;;;;;1.98;76.25;101579.94;4937255;29;20043;-70
2022/04/24 02:21:45;;;;;;;6.30;2.80;;;;;;;1.96;76.24;101573.09;4937111;29;20158;-70
2022/04/24 02:24:29;;;;;;;5.47;2.73;;;;;;;1.93;76.67;101573.25;4937433;29;20046;-66
2022/04/24 02:30:17;;;;;;;3.93;2.90;;;;;;;1.96;76.46;101568.69;4938472;29;20389;-67
2022/04/24 02:32:42;;;;;;;4.30;2.60;;;;;;;2.05;76.49;101583.94;4938692;29;20271;-67
2022/04/24 02:35:08;;;;;;;8.00;2.67;;;;;;;2.04;76.59;101587.50;4937849;29;20130;-68
2022/04/24 02:37:33;;;;;;;3.33;2.17;;;;;;;2.06;76.66;101583.00;4937494;29;20039;-68
2022/04/24 02:39:59;;;;;;;5.23;3.00;;;;;;;2.08;76.32;101581.13;4920229;29;20040;-69
2022/04/24 02:42:25;;;;;;;4.40;2.40;;;;;;;2.02;76.12;101576.19;4937370;29;20036;-68
2022/04/24 02:44:50;;;;;;;4.07;2.97;;;;;;;2.05;76.71;101589.19;4936792;29;20035;-67
2022/04/24 02:47:16;;;;;;;4.40;3.33;;;;;;;2.04;76.46;101584.88;4936941;29;20082;-67
2022/04/24 02:49:42;;;;;;;4.50;2.67;;;;;;;1.85;76.31;101555.31;4904153;29;20047;-68
2022/04/24 02:52:07;;;;;;;3.77;2.70;;;;;;;2.10;76.44;101592.41;4936095;29;20042;-68
2022/04/24 02:54:33;;;;;;;5.73;2.90;;;;;;;2.09;76.22;101585.44;4936308;29;20392;-69
2022/04/24 02:56:59;;;;;;;4.70;2.90;;;;;;;2.11;76.40;101588.84;4919576;29;20036;-70
2022/04/24 02:59:25;;;;;;;4.73;3.70;;;;;;;2.07;76.56;101597.81;4936642;29;20055;-69
2022/04/24 03:01:52;;;;;;;4.90;3.03;;;;;;;2.08;76.96;101581.13;4936623;29;20366;-69
2022/04/24 03:04:19;;;;;;;7.00;3.93;;;;;;;2.01;76.51;101561.38;4936288;29;20267;-70
2022/04/24 03:06:45;;;;;;;4.23;2.73;;;;;;;2.16;76.68;101581.53;4936007;29;20283;-68
2022/04/24 03:09:11;;;;;;;5.27;3.40;;;;;;;2.16;76.58;101573.63;4936040;29;20278;-69
2022/04/24 03:11:36;;;;;;;5.17;2.90;;;;;;;2.23;76.60;101583.78;4936818;29;20051;-68
2022/04/24 03:14:02;;;;;;;3.87;2.83;;;;;;;2.17;76.14;101572.69;4936994;29;20567;-72
2022/04/24 03:16:27;;;;;;;4.37;2.70;;;;;;;2.21;76.30;101567.28;4937023;29;20035;-69
2022/04/24 03:18:53;;;;;;;4.73;3.00;;;;;;;2.28;76.32;101568.59;4936819;29;20043;-70
2022/04/24 03:21:19;;;;;;;3.20;2.67;;;;;;;2.30;75.82;101550.94;4937515;29;20043;-69
2022/04/24 03:23:44;;;;;;;4.00;3.10;;;;;;;2.29;75.70;101538.75;4919428;29;20036;-70
2022/04/24 03:26:13;;;;;;;4.17;2.80;;;;;;;2.47;75.77;101572.69;4937272;29;20935;-70
2022/04/24 03:28:39;;;;;;;;;;;;;;;2.76;75.15;101565.69;4936813;29;20061;-66
2022/04/24 03:31:04;;;;;;;4.53;3.37;;;;;;;3.10;73.22;101566.25;4936177;29;19945;-67
2022/04/24 03:33:30;;;;;;;3.10;2.80;;;;;;;2.94;73.00;101536.56;4919277;29;20456;-74
2022/04/24 03:35:55;;;;;;;4.00;2.60;;;;;;;3.22;72.89;101549.72;4936663;29;20131;-74
2022/04/24 03:38:21;;;;;;;3.00;2.60;;;;;;;3.18;72.42;101550.84;4936183;29;20123;-74
2022/04/24 03:40:46;;;;;;;3.47;2.33;;;;;;;3.21;72.64;101555.06;4936357;29;20122;-72
2022/04/24 03:43:12;;;;;;;5.70;3.20;;;;;;;3.05;73.18;101545.47;4935792;29;20384;-69
2022/04/24 03:45:37;;;;;;;5.43;2.63;;;;;;;2.99;73.12;101566.06;4936956;29;20040;-70
2022/04/24 03:48:03;;;;;;;4.50;3.30;;;;;;;2.80;74.22;101572.44;4938359;29;20514;-70
2022/04/24 03:50:29;;;;;;;3.67;2.70;;;;;;;2.74;74.66;101564.94;4937785;29;20036;-74
2022/04/24 03:52:54;;;;;;;3.77;2.60;;;;;;;2.77;74.52;101556.84;4936823;29;20047;-74
2022/04/24 03:55:19;;;;;;;5.23;3.07;;;;;;;2.72;74.30;101548.41;4935769;29;20050;-68
2022/04/24 03:57:46;;;;;;;4.20;2.80;;;;;;;2.84;74.56;101556.47;4935288;29;20487;-69
2022/04/24 04:00:14;;;;;;;4.67;2.50;;;;;;;2.83;74.12;101544.25;4935789;29;20050;-71
2022/04/24 04:02:47;;;;;;;3.97;2.80;;;;;;;2.71;74.43;101546.72;4918710;29;20853;-70
2022/04/24 04:05:13;;;;;;;4.87;2.50;;;;;;;2.65;74.45;101531.31;4936138;29;20272;-74
2022/04/24 04:07:39;;;;;;;3.70;2.70;;;;;;;2.73;74.53;101557.13;4936609;29;20279;-70
2022/04/24 04:10:06;;;;;;;4.63;2.43;;;;;;;2.73;74.76;101557.13;4937632;29;20361;-69
2022/04/24 04:12:32;;;;;;;5.57;2.90;;;;;;;2.54;75.04;101522.34;4918656;29;20264;-70
2022/04/24 04:15:24;;;;;;;3.97;3.03;;;;;;;2.74;75.03;101557.03;4935638;29;20330;-68
2022/04/24 04:17:50;;;;;;;3.57;2.80;;;;;;;2.78;74.91;101558.53;4935529;29;20294;-69
2022/04/24 04:20:15;;;;;;;6.20;2.73;;;;;;;2.80;74.57;101561.94;4934959;29;20268;-69
2022/04/24 04:22:51;;;;;;;5.00;3.00;;;;;;;2.84;74.61;101554.69;4934991;29;20046;-68
2022/04/24 04:25:21;;;;;;;5.67;3.10;;;;;;;2.77;74.13;101530.56;4934840;29;20415;-71
2022/04/24 04:27:47;;;;;;;5.73;3.03;;;;;;;2.74;74.06;101514.97;4934833;29;20648;-70
2022/04/24 04:30:13;;;;;;;4.60;3.07;;;;;;;2.74;73.80;101499.19;4935204;29;20263;-70
2022/04/24 04:32:39;;;;;;;5.70;2.90;;;;;;;3.06;73.63;101541.06;4935281;29;20696;-70
2022/04/24 04:35:05;;;;;;;6.33;2.73;;;;;;;3.07;73.21;101545.38;4934780;29;20287;-70
2022/04/24 04:37:32;;;;;;;3.40;2.87;;;;;;;3.15;73.21;101558.91;4934761;29;20036;-70
2022/04/24 04:39:58;;;;;;;6.87;2.63;;;;;;;3.15;72.91;101555.44;4918140;29;20275;-71
2022/04/24 04:42:23;;;;;;;4.73;2.80;;;;;;;3.15;72.99;101524.69;4935376;29;20842;-74
2022/04/24 04:44:49;;;;;;;5.73;3.00;;;;;;;3.35;72.53;101529.56;4918434;29;20403;-72
2022/04/24 04:47:14;;;;;;;3.43;3.00;;;;;;;3.48;72.31;101547.22;4935552;29;20067;-69
2022/04/24 04:49:39;;;;;;;3.50;3.03;;;;;;;3.45;72.13;101539.50;4936339;29;20083;-73
2022/04/24 04:52:05;;;;;;;3.30;2.27;;;;;;;3.48;72.06;101542.81;4937827;29;20035;-74
2022/04/24 04:54:31;;;;;;;3.57;3.03;;;;;;;3.59;72.00;101550.00;4905376;29;20479;-73
2022/04/24 04:56:56;;;;;;;4.27;2.83;;;;;;;3.68;71.37;101541.50;4943178;29;20044;-74
2022/04/24 04:59:22;;;;;;;5.57;2.63;;;;;;;3.78;71.36;101539.13;4948216;29;20142;-74
2022/04/24 05:01:50;;;;;;;7.77;2.53;;;;;;;3.77;71.17;101521.63;4945763;29;20044;-68
2022/04/24 05:04:15;;;;;;;3.93;2.57;;;;;;;3.88;71.04;101540.22;4944066;29;20046;-71
2022/04/24 06:27:45;;;;;;;3.73;2.67;;;;;;;5.73;64.14;101499.94;5125544;27;20827;-71
2022/04/24 06:30:12;;;;;;;4.63;2.83;;;;;;;5.83;64.25;101482.47;5109715;28;20691;-74
2022/04/24 06:32:39;;;;;;;3.47;2.97;;;;;;;5.98;63.74;101492.84;5109671;28;20326;-67
2022/04/24 06:35:06;;;;;;;6.77;2.77;;;;;;;5.93;63.79;101468.56;5108798;28;20270;-71
2022/04/24 06:37:32;;;;;;;2.90;2.60;;;;;;;5.86;63.61;101478.75;5111246;28;20469;-73
2022/04/24 06:39:58;;;;;;;3.40;2.70;;;;;;;5.63;64.81;101467.22;5112218;28;20383;-69
2022/04/24 06:42:23;;;;;;;4.13;2.80;;;;;;;5.68;64.58;101488.88;5114724;28;20036;-76
2022/04/24 06:44:49;;;;;;;3.23;2.50;;;;;;;4.91;64.96;101400.31;5112921;28;20040;-78
2022/04/24 06:47:14;;;;;;;4.73;2.73;;;;;;;5.33;65.60;101451.81;5112179;28;20383;-70
2022/04/24 06:49:40;;;;;;;2.40;2.20;;;;;;;5.08;65.54;101439.56;5118979;28;20043;-75
2022/04/24 06:52:06;;;;;;;3.63;2.87;;;;;;;5.16;65.84;101454.84;5122159;28;20032;-74
2022/04/24 06:54:50;;;;;;;5.47;2.70;;;;;;;5.07;65.95;101435.22;5125968;28;20081;-76
2022/04/24 06:57:15;;;;;;;8.57;4.07;;;;;;;5.21;66.07;101485.25;5126543;28;20274;-75
2022/04/24 06:59:45;;;;;;;2.65;2.13;;;;;;;5.07;66.36;101464.28;5119657;28;20101;-77
2022/04/24 07:02:10;;;;;;;4.87;2.70;;;;;;;4.90;66.35;101425.88;5117419;28;20032;-75
2022/04/24 07:04:36;;;;;;;7.37;2.70;;;;;;;5.18;66.49;101469.63;5113940;28;20276;-75
2022/04/24 07:07:02;;;;;;;3.97;2.40;;;;;;;5.11;66.17;101444.63;5111448;28;20044;-79
2022/04/24 07:09:29;;;;;;;3.60;2.47;;;;;;;5.24;66.33;101471.84;5114130;28;20059;-79
2022/04/24 07:11:55;;;;;;;3.63;2.83;;;;;;;5.31;66.43;101450.25;5111784;28;20040;-67
2022/04/24 07:14:20;;;;;;;5.53;3.10;;;;;;;5.42;65.48;101450.31;5107976;28;20280;-73
2022/04/24 07:16:46;;;;;;;4.40;2.40;;;;;;;5.45;65.65;101468.56;5107943;28;20036;-72
2022/04/24 07:19:11;;;;;;;4.30;2.70;;;;;;;5.43;65.48;101450.19;5107495;28;20036;-65
2022/04/24 07:21:37;;;;;;;4.43;2.60;;;;;;;5.25;65.48;101412.78;5108917;28;20031;-64
2022/04/24 07:24:03;;;;;;;3.50;2.77;;;;;;;5.60;65.28;101467.47;5108862;28;20118;-63
2022/04/24 07:26:31;;;;;;;6.50;3.20;;;;;;;5.56;65.58;101437.78;5106828;28;20150;-65
2022/04/24 07:28:57;;;;;;;3.90;2.97;;;;;;;5.76;64.82;101438.91;5107367;28;20297;-66
2022/04/24 07:31:23;;;;;;;2.57;2.20;;;;;;;5.95;64.40;101450.78;5108450;28;20784;-67
2022/04/24 07:33:49;;;;;;;5.27;2.37;;;;;;;5.93;63.94;101484.44;5090451;28;20270;-67
2022/04/24 07:36:15;;;;;;;8.17;2.90;;;;;;;5.76;64.39;101465.34;5108182;28;20036;-64
2022/04/24 07:38:41;;;;;;;3.47;2.40;;;;;;;5.91;63.87;101479.25;5094191;28;20378;-66
2022/04/24 07:41:07;;;;;;;4.67;2.70;;;;;;;6.03;63.74;101482.78;5091780;28;20363;-66
2022/04/24 07:43:33;;;;;;;2.87;2.50;;;;;;;6.13;63.39;101466.13;5091578;28;20363;-65
2022/04/24 07:45:59;;;;;;;3.53;2.70;;;;;;;6.23;62.69;101445.09;5092237;28;20074;-65
2022/04/24 07:48:25;;;;;;;3.70;2.43;;;;;;;6.43;62.39;101460.28;5092773;28;20502;-64
2022/04/24 07:50:51;;;;;;;4.40;2.37;;;;;;;6.64;61.94;101472.78;5092725;28;20471;-64
2022/04/24 07:53:18;;;;;;;4.20;2.10;;;;;;;6.60;61.25;101447.50;5094030;28;20250;-65
2022/04/24 07:55:45;;;;;;;6.73;2.63;;;;;;;6.57;61.44;101458.34;5094558;28;20432;-68
2022/04/24 07:58:11;;;;;;;6.03;2.60;;;;;;;6.51;61.96;101459.66;5095234;28;20258;-64
2022/04/24 08:00:38;;;;;;;4.10;2.10;;;;;;;6.24;62.57;101422.13;5093128;28;20478;-65
2022/04/24 08:03:08;;;;;;;2.73;2.27;;;;;;;6.58;61.40;101449.44;5094374;28;20064;-66
2022/04/24 08:05:38;;;;;;;8.27;2.77;;;;;;;6.45;62.15;101445.13;5092713;28;20398;-64
2022/04/24 08:08:09;;;;;;;4.60;2.00;;;;;;;6.50;61.58;101448.25;5094544;28;20266;-65
2022/04/24 08:10:37;;;;;;;4.90;2.90;;;;;;;6.45;62.27;101437.19;5094458;28;20345;-62
2022/04/24 08:13:05;;;;;;;5.83;3.77;;;;;;;6.29;62.34;101423.44;5094177;28;20772;-65
2022/04/24 08:15:33;;;;;;;6.60;2.47;;;;;;;6.45;62.15;101444.28;5094186;28;20288;-67
2022/04/24 08:18:00;;;;;;;18.95;3.10;;;;;;;6.41;61.55;101443.69;5092847;28;20262;-64
2022/04/24 08:20:25;;;;;;;4.03;2.30;;;;;;;6.45;62.00;101439.81;5093500;28;20046;-65
2022/04/24 08:22:53;;;;;;;6.17;2.37;;;;;;;6.55;61.44;101423.22;5092817;28;20275;-62
2022/04/24 08:25:21;;;;;;;6.77;3.03;;;;;;;6.79;61.20;101437.16;5094382;28;20043;-69
2022/04/24 08:27:49;;;;;;;4.80;2.42;;;;;;;6.95;60.38;101427.06;5094415;28;20377;-67
2022/04/24 08:30:16;;;;;;;4.03;2.30;;;;;;;7.09;59.90;101424.13;5096930;28;20052;-67
2022/04/24 08:33:08;;;;;;;3.37;3.07;;;;;;;7.08;60.15;101427.75;5094772;28;20058;-66
2022/04/24 08:35:33;;;;;;;5.30;2.47;;;;;;;7.03;60.95;101435.22;5095101;28;20278;-62
2022/04/24 08:37:59;;;;;;;10.70;2.70;;;;;;;6.93;60.34;101430.75;5093121;28;20038;-65
2022/04/24 08:40:25;;;;;;;5.63;3.07;;;;;;;6.75;60.83;101430.44;5093937;28;20067;-63
2022/04/24 08:42:52;;;;;;;11.57;4.67;;;;;;;6.75;61.55;101419.84;5093841;28;20428;-62
2022/04/24 08:45:18;;;;;;;8.70;3.40;;;;;;;6.79;61.14;101402.75;5093574;28;20105;-64
2022/04/24 08:47:45;;;;;;;4.17;2.47;;;;;;;7.03;59.99;101423.78;5093812;28;20491;-62
2022/04/24 08:50:12;;;;;;;4.10;2.80;;;;;;;7.17;59.68;101428.78;5092520;28;20131;-61
2022/04/24 08:52:42;;;;;;;6.47;2.93;;;;;;;7.19;59.86;101432.16;5094835;28;20399;-69
2022/04/24 08:55:08;;;;;;;6.23;3.50;;;;;;;7.36;58.88;101428.16;5077370;28;20040;-69
2022/04/24 08:57:34;;;;;;;11.17;3.13;;;;;;;7.50;58.29;101419.06;5094645;28;20028;-68
2022/04/24 09:00:00;;;;;;;6.43;2.23;;;;;;;7.18;58.54;101411.09;5077284;28;20434;-63
2022/04/24 09:02:26;;;;;;;8.77;3.33;;;;;;;7.18;59.18;101432.28;5093495;28;20040;-65
2022/04/24 09:04:53;;;;;;;5.20;2.40;;;;;;;7.18;58.96;101426.97;5093340;28;20073;-64
2022/04/24 09:07:21;;;;;;;16.10;2.50;;;;;;;6.98;59.62;101420.66;5093264;28;20483;-64
2022/04/24 09:09:49;;;;;;;4.20;2.10;;;;;;;6.97;59.20;101421.63;5094090;28;20035;-69
2022/04/24 09:12:17;;;;;;;9.13;3.22;;;;;;;7.11;59.35;101405.47;5093726;28;20028;-67
2022/04/24 09:14:50;;;;;;;5.13;3.70;;;;;;;7.20;58.23;101425.06;5092495;28;20036;-65
2022/04/24 09:17:17;;;;;;;16.30;2.70;;;;;;;7.06;58.38;101389.94;5092663;28;20024;-67
2022/04/24 09:19:43;;;;;;;6.40;3.43;;;;;;;7.40;57.68;101416.31;5092828;28;20032;-63
2022/04/24 09:22:12;;;;;;;3.87;2.40;;;;;;;7.68;57.53;101430.78;5091725;28;20036;-63
2022/04/24 09:24:43;;;;;;;3.60;2.83;;;;;;;7.73;56.85;101440.03;5093120;28;20130;-62
2022/04/24 09:27:11;;;;;;;5.87;2.77;;;;;;;7.80;56.05;101440.34;5092274;28;20090;-63
2022/04/24 09:29:40;;;;;;;3.90;2.20;;;;;;;7.85;56.84;101432.88;5093128;28;20036;-65
2022/04/24 09:32:11;;;;;;;7.37;2.07;;;;;;;7.88;56.76;101415.88;5091800;28;20046;-71
2022/04/24 09:34:38;;;;;;;8.83;3.30;;;;;;;7.86;57.01;101439.88;5091206;28;20078;-67
2022/04/24 09:37:09;;;;;;;4.90;2.57;;;;;;;7.81;56.77;101414.72;5090985;28;20032;-66
2022/04/24 09:39:36;;;;;;;7.93;2.37;;;;;;;7.77;56.67;101433.50;5091951;28;20040;-65
2022/04/24 09:42:10;;;;;;;4.53;2.47;;;;;;;7.44;56.96;101385.94;5092671;28;20047;-68
2022/04/24 09:44:40;;;;;;;6.10;2.57;;;;;;;7.73;56.54;101434.75;5092624;28;20121;-67
2022/04/24 09:47:06;;;;;;;4.07;2.80;;;;;;;7.80;57.00;101429.75;5092405;28;20044;-65
2022/04/24 09:49:38;;;;;;;3.77;2.10;;;;;;;7.82;56.23;101427.00;5092611;28;20036;-67
2022/04/24 09:52:15;;;;;;;7.70;3.13;;;;;;;7.88;55.94;101426.47;5091450;28;20120;-66
2022/04/24 09:54:46;;;;;;;7.97;2.40;;;;;;;7.90;56.14;101413.94;5092680;28;20100;-63
2022/04/24 09:57:13;;;;;;;5.50;2.83;;;;;;;8.03;55.42;101420.72;5092839;28;20044;-65
2022/04/24 09:59:41;;;;;;;9.37;2.07;;;;;;;7.98;55.70;101432.69;5092124;28;20034;-65
2022/04/24 10:02:08;;;;;;;3.97;2.40;;;;;;;7.53;56.37;101382.56;5091418;28;20055;-68
2022/04/24 10:04:38;;;;;;;3.80;2.80;;;;;;;7.67;56.61;101419.34;5091874;28;20115;-64
2022/04/24 10:07:14;;;;;;;7.90;2.77;;;;;;;7.73;56.23;101465.72;5093311;28;20040;-65
2022/04/24 10:09:47;;;;;;;6.87;2.27;;;;;;;7.72;56.07;101387.13;5094169;28;20100;-66
2022/04/24 10:12:17;;;;;;;5.17;2.47;;;;;;;7.89;56.49;101399.84;5092187;28;20105;-66
2022/04/24 10:14:49;;;;;;;10.50;3.15;;;;;;;7.98;55.15;101411.47;5092160;28;20032;-66
2022/04/24 10:17:46;;;;;;;6.93;2.97;;;;;;;7.97;55.44;101396.53;5093755;28;20086;-76
2022/04/24 10:20:22;;;;;;;5.00;2.50;;;;;;;8.16;55.21;101396.66;5091468;28;20040;-67
2022/04/24 10:22:49;;;;;;;3.20;2.83;;;;;;;8.37;54.60;101373.56;5092346;28;20270;-69
2022/04/24 10:25:15;;;;;;;6.13;2.43;;;;;;;8.69;53.92;101392.03;5092258;28;20526;-74
2022/04/24 10:27:47;;;;;;;5.80;2.87;;;;;;;8.81;53.42;101387.44;5094767;28;20056;-73
2022/04/24 10:30:24;;;;;;;9.87;3.43;;;;;;;8.69;53.93;101359.31;5099495;28;20078;-67
2022/04/24 10:33:22;;;;;;;7.17;2.83;;;;;;;8.70;53.84;101371.63;5104936;28;20032;-74
2022/04/24 10:36:15;;;;;;;8.27;3.47;;;;;;;8.81;54.11;101374.16;5093509;28;20085;-69
2022/04/24 10:39:01;;;;;;;8.27;2.80;;;;;;;8.73;53.55;101383.78;5090281;28;20042;-69
2022/04/24 10:41:30;;;;;;;3.40;2.50;;;;;;;8.54;53.87;101381.91;5090366;28;20032;-67
2022/04/24 10:44:08;;;;;;;4.77;2.93;;;;;;;8.41;54.24;101376.00;5090081;28;20636;-65
2022/04/24 10:46:39;;;;;;;8.73;2.90;;;;;;;8.24;54.82;101380.06;5091226;28;20028;-66
2022/04/24 10:49:10;;;;;;;10.67;2.90;;;;;;;8.01;54.94;101358.16;5091716;28;20159;-64
2022/04/24 10:51:37;;;;;;;5.80;2.57;;;;;;;8.11;55.11;101374.97;5091451;28;20117;-65
2022/04/24 10:54:14;;;;;;;15.03;3.00;;;;;;;8.02;55.26;101375.75;5090316;28;20039;-66
2022/04/24 10:56:51;;;;;;;25.17;3.97;;;;;;;7.91;55.36;101366.06;5091725;28;20032;-64
2022/04/24 10:59:19;;;;;;;6.37;2.60;;;;;;;7.80;56.23;101360.81;5091577;28;20028;-67
2022/04/24 11:01:48;;;;;;;12.87;4.13;;;;;;;7.87;56.42;101343.44;5091431;28;20047;-64
2022/04/24 11:04:15;;;;;;;37.43;3.90;;;;;;;8.02;55.48;101341.25;5091356;28;20047;-68
2022/04/24 11:07:00;;;;;;;6.83;2.40;;;;;;;8.12;55.34;101350.13;5091727;28;20039;-71
2022/04/24 11:09:31;;;;;;;8.00;3.80;;;;;;;8.10;55.20;101344.13;5091045;28;20038;-73
2022/04/24 11:12:01;;;;;;;7.90;2.40;;;;;;;8.24;55.00;101338.44;5091583;28;20032;-70
2022/04/24 11:14:28;;;;;;;12.00;3.30;;;;;;;8.43;53.76;101347.50;5094991;28;20043;-72
2022/04/24 11:17:00;;;;;;;8.50;2.23;;;;;;;8.23;54.43;101312.88;5095499;28;20040;-72
2022/04/24 11:19:27;;;;;;;13.70;4.83;;;;;;;8.41;53.92;101352.09;5093406;28;20494;-73
2022/04/24 11:22:00;;;;;;;73.80;8.90;;;;;;;8.29;54.26;101333.56;5095553;28;20510;-71
2022/04/24 11:24:31;;;;;;;7.60;2.03;;;;;;;8.26;54.60;101331.19;5095818;28;20123;-68
2022/04/24 11:27:03;;;;;;;6.10;2.27;;;;;;;8.28;54.32;101334.53;5096184;28;20091;-70
2022/04/24 11:29:31;;;;;;;6.67;2.63;;;;;;;8.30;54.20;101321.97;5098405;28;20047;-72
2022/04/24 11:31:56;;;;;;;11.43;3.13;;;;;;;8.30;54.57;101321.13;5096491;28;20051;-74
2022/04/24 11:34:23;;;;;;;10.43;2.97;;;;;;;8.29;54.23;101307.03;5094697;28;20027;-68
2022/04/24 11:36:54;;;;;;;9.23;2.20;;;;;;;8.51;53.54;101321.09;5094730;28;20055;-69
2022/04/24 11:39:20;;;;;;;5.47;2.70;;;;;;;8.71;53.63;101317.53;5094579;28;20032;-71
2022/04/24 11:41:46;;;;;;;11.80;3.27;;;;;;;8.95;52.78;101307.34;5094845;28;20359;-71
2022/04/24 11:52:36;;;;;;;6.77;2.03;;;;;;;9.35;51.23;101314.34;5093443;28;20024;-74
2022/04/24 11:55:04;;;;;;;3.60;2.47;;;;;;;9.43;51.32;101317.13;5094179;28;20037;-66
2022/04/24 11:57:30;;;;;;;2.92;2.10;;;;;;;9.25;51.53;101313.50;5094696;28;20039;-75
2022/04/24 11:59:56;;;;;;;25.53;4.40;;;;;;;9.10;51.58;101314.91;5094361;28;20031;-71
2022/04/24 12:02:26;;;;;;;3.00;2.07;;;;;;;9.11;52.08;101319.25;5094014;28;20370;-74
2022/04/24 12:04:53;;;;;;;8.03;2.20;;;;;;;8.97;52.46;101310.72;5093864;28;20036;-70
2022/04/24 12:07:18;;;;;;;5.57;2.43;;;;;;;8.87;52.30;101293.91;5073931;28;20040;-70
2022/04/24 12:09:45;;;;;;;8.70;4.20;;;;;;;9.11;51.58;101290.00;5096093;28;20411;-72
2022/04/24 12:12:13;;;;;;;9.50;2.70;;;;;;;9.50;50.49;101293.47;5095246;28;20036;-71
2022/04/24 12:14:40;;;;;;;7.85;2.90;;;;;;;9.82;49.81;101277.16;5093776;28;20036;-74
2022/04/24 12:17:08;;;;;;;12.40;3.33;;;;;;;9.76;49.34;101281.22;5094009;28;20058;-71
2022/04/24 12:19:34;;;;;;;5.63;2.92;;;;;;;9.89;49.53;101303.03;5094208;28;20035;-71
2022/04/24 12:22:11;;;;;;;5.70;3.10;;;;;;;9.92;49.80;101305.41;5093881;28;20082;-72
2022/04/24 12:24:46;;;;;;;4.13;2.43;;;;;;;9.74;49.23;101277.88;5089681;28;20032;-69
2022/04/24 12:27:14;;;;;;;4.03;2.67;;;;;;;9.40;49.80;101280.19;5094031;28;20063;-70
2022/04/24 12:29:44;;;;;;;;;;;;;;;9.59;49.95;101306.75;5096504;28;20086;-77
2022/04/24 12:32:13;;;;;;;8.20;2.63;;;;;;;9.43;50.58;101287.88;5093078;28;19916;-70
2022/04/24 12:34:39;;;;;;;4.38;2.65;;;;;;;9.62;50.64;101310.97;5095127;28;20028;-72
2022/04/24 12:37:06;;;;;;;2.40;2.20;;;;;;;9.81;49.51;101294.94;5092424;28;20121;-73
2022/04/24 12:39:32;;;;;;;7.30;2.90;;;;;;;9.38;49.46;101234.31;5093668;28;20039;-71
2022/04/24 12:42:01;;;;;;;8.13;2.73;;;;;;;9.35;50.01;101258.53;5093910;28;20043;-72
2022/04/24 12:44:27;;;;;;;5.43;2.50;;;;;;;9.30;50.33;101290.00;5093665;28;20032;-71
2022/04/24 12:46:52;;;;;;;10.20;2.80;;;;;;;9.20;50.96;101290.00;5093561;28;20107;-76
2022/04/24 12:49:37;;;;;;;5.73;2.50;;;;;;;9.18;51.57;101283.16;5093891;28;20077;-71
2022/04/24 12:52:03;;;;;;;3.87;2.37;;;;;;;9.10;51.40;101280.38;5093958;28;20051;-71
2022/04/24 12:54:29;;;;;;;5.90;2.30;;;;;;;8.54;50.94;101196.91;5094127;28;20031;-70
2022/04/24 12:56:55;;;;;;;2.67;2.27;;;;;;;9.03;51.30;101296.03;5093824;28;20093;-71
2022/04/24 12:59:21;;;;;;;4.53;2.40;;;;;;;9.00;51.45;101264.44;5094386;28;20025;-76
2022/04/24 13:01:47;;;;;;;3.63;2.23;;;;;;;8.99;51.99;101249.47;5094982;28;20028;-67
2022/04/24 13:04:14;;;;;;;6.30;2.83;;;;;;;9.04;51.59;101246.41;5092672;28;20157;-69
2022/04/24 13:06:40;;;;;;;10.50;2.73;;;;;;;9.19;51.26;101250.28;5092854;28;20028;-68
2022/04/24 13:09:06;;;;;;;6.30;2.17;;;;;;;9.20;50.64;101251.97;5091564;28;20044;-69
2022/04/24 13:11:31;;;;;;;5.13;2.00;;;;;;;9.13;50.99;101257.00;5091319;28;20032;-68